MyWebLog Booking Liste

 

Nyhetsmelding

Kopirett © 2014 Værnes Flyklubb. Alle rettigheter reservert.
Joomla! er fri programvare utgitt under GNU/GPL License.
 

METAR

ENVA 250920Z 09004KT CAVOK 06/05 Q1002 NOSIG RMK WIND 670FT VRB02KT

TAF ENVA 2509/2609 13006KT 9999 FEW002 BKN070 TEMPO 2515/2524 16015G28KT TEMPO 2600/2609 16022G35KT